createdAt,value
2019-05-12T00:00:18.551Z,88.79
2019-05-12T00:01:19.945Z,89.37
2019-05-12T00:02:21.331Z,89.47
2019-05-12T00:03:22.734Z,89.08
2019-05-12T00:04:24.130Z,89.65
2019-05-12T00:05:27.791Z,89.18
2019-05-12T00:06:28.427Z,89.08
2019-05-12T00:07:28.594Z,89.27
2019-05-12T00:08:29.568Z,89.37
2019-05-12T00:09:30.980Z,89.27
2019-05-12T00:10:32.374Z,89.56
2019-05-12T00:11:33.760Z,89.56
2019-05-12T00:12:35.162Z,89.56
2019-05-12T00:13:38.313Z,89.37
2019-05-12T00:14:38.116Z,90.13
2019-05-12T00:15:39.364Z,90.32
2019-05-12T00:16:40.751Z,89.84
2019-05-12T00:17:42.156Z,90.61
2019-05-12T00:18:43.555Z,90.61
2019-05-12T00:19:44.963Z,90.80
2019-05-12T00:20:47.672Z,90.70
2019-05-12T00:21:48.310Z,90.42
2019-05-12T00:22:49.207Z,90.80
2019-05-12T00:23:50.439Z,90.70
2019-05-12T00:24:51.838Z,90.70
2019-05-12T00:25:53.245Z,90.61
2019-05-12T00:26:54.615Z,90.70
2019-05-12T00:27:58.408Z,90.47
2019-05-12T00:28:58.824Z,90.51
2019-05-12T00:29:58.722Z,90.80
2019-05-12T00:31:00.113Z,90.80
2019-05-12T00:32:01.494Z,90.61
2019-05-12T00:33:02.891Z,90.51
2019-05-12T00:34:04.286Z,90.80
2019-05-12T00:35:07.817Z,90.56
2019-05-12T00:36:08.004Z,90.70
2019-05-12T00:37:08.419Z,90.61
2019-05-12T00:38:09.782Z,90.37
2019-05-12T00:39:11.175Z,90.80
2019-05-12T00:40:12.558Z,90.51
2019-05-12T00:41:13.964Z,90.70
2019-05-12T00:42:15.362Z,90.80
2019-05-12T00:43:18.583Z,90.89
2019-05-12T00:44:18.491Z,90.61
2019-05-12T00:45:19.652Z,90.61
2019-05-12T00:46:21.039Z,90.51
2019-05-12T00:47:22.427Z,90.75
2019-05-12T00:48:23.809Z,90.84
2019-05-12T00:49:25.205Z,90.13
2019-05-12T00:50:28.620Z,90.51
2019-05-12T00:51:28.826Z,90.66
2019-05-12T00:52:29.310Z,90.84
2019-05-12T00:53:39.681Z,90.28
2019-05-12T00:54:32.052Z,90.75
2019-05-12T00:55:33.437Z,90.47
2019-05-12T00:56:34.833Z,90.37
2019-05-12T00:57:38.094Z,90.84
2019-05-12T00:58:38.244Z,90.18
2019-05-12T00:59:38.944Z,90.08
2019-05-12T01:00:41.152Z,89.89
2019-05-12T01:01:41.684Z,89.89
2019-05-12T01:02:43.078Z,90.84
2019-05-12T01:03:44.474Z,89.89
2019-05-12T01:04:45.855Z,89.99
2019-05-12T01:05:48.549Z,90.66
2019-05-12T01:06:51.711Z,90.84
2019-05-12T01:07:51.265Z,90.75
2019-05-12T01:08:51.307Z,89.89
2019-05-12T01:09:52.706Z,90.08
2019-05-12T01:10:54.087Z,90.75
2019-05-12T01:11:55.486Z,90.28
2019-05-12T01:12:58.149Z,90.47
2019-05-12T01:13:58.382Z,89.99
2019-05-12T01:14:59.579Z,89.70
2019-05-12T01:16:00.965Z,89.51
2019-05-12T01:17:02.353Z,89.70
2019-05-12T01:18:03.756Z,89.32
2019-05-12T01:19:07.402Z,89.14
2019-05-12T01:20:08.690Z,89.23
2019-05-12T01:21:07.918Z,89.32
2019-05-12T01:22:09.195Z,88.56
2019-05-12T01:23:10.583Z,88.75
2019-05-12T01:24:11.981Z,89.14
2019-05-12T01:25:13.379Z,89.32
2019-05-12T01:26:14.773Z,88.94
2019-05-12T01:27:17.973Z,89.51
2019-05-12T01:28:18.386Z,89.32
2019-05-12T01:29:18.925Z,89.89
2019-05-12T01:30:20.315Z,90.28
2019-05-12T01:31:21.704Z,89.70
2019-05-12T01:32:23.096Z,89.99
2019-05-12T01:33:24.504Z,90.37
2019-05-12T01:34:27.596Z,90.84
2019-05-12T01:35:28.167Z,89.89
2019-05-12T01:36:28.776Z,90.75
2019-05-12T01:37:29.966Z,90.47
2019-05-12T01:38:31.363Z,90.66
2019-05-12T01:39:32.746Z,90.84
2019-05-12T01:40:34.136Z,90.66
2019-05-12T01:41:35.521Z,91.13
2019-05-12T01:42:38.221Z,91.22
2019-05-12T01:43:38.326Z,91.32
2019-05-12T01:44:39.675Z,91.80
2019-05-12T01:45:41.077Z,91.42
2019-05-12T01:46:42.463Z,91.32
2019-05-12T01:47:43.851Z,91.03
2019-05-12T01:48:45.238Z,91.51
2019-05-12T01:49:48.655Z,91.61
2019-05-12T01:50:47.987Z,91.03
2019-05-12T01:51:49.383Z,91.70
2019-05-12T01:52:50.770Z,91.70
2019-05-12T01:53:52.162Z,91.99
2019-05-12T01:54:53.557Z,92.08
2019-05-12T01:55:54.944Z,91.70
2019-05-12T01:56:58.595Z,91.51
2019-05-12T01:57:58.039Z,91.80
2019-05-12T01:58:59.059Z,91.89
2019-05-12T02:00:00.449Z,91.89
2019-05-12T02:01:03.094Z,91.70
2019-05-12T02:02:03.188Z,91.80
2019-05-12T02:03:04.574Z,91.80
2019-05-12T02:04:07.591Z,91.42
2019-05-12T02:05:08.511Z,91.32
2019-05-12T02:06:08.664Z,91.32
2019-05-12T02:07:10.046Z,91.42
2019-05-12T02:08:11.438Z,91.32
2019-05-12T02:09:12.826Z,90.84
2019-05-12T02:10:14.211Z,90.94
2019-05-12T02:11:18.095Z,90.47
2019-05-12T02:12:18.264Z,89.99
2019-05-12T02:13:18.364Z,90.08
2019-05-12T02:14:19.708Z,89.99
2019-05-12T02:15:21.099Z,89.99
2019-05-12T02:16:22.489Z,89.70
2019-05-12T02:17:23.877Z,89.89
2019-05-12T02:18:25.269Z,89.89
2019-05-12T02:19:28.249Z,89.99
2019-05-12T02:20:28.806Z,90.28
2019-05-12T02:21:29.391Z,89.51
2019-05-12T02:22:30.781Z,90.37
2019-05-12T02:23:32.174Z,90.08
2019-05-12T02:24:33.557Z,90.28
2019-05-12T02:25:34.977Z,89.94
2019-05-12T02:26:38.064Z,89.85
2019-05-12T02:27:38.316Z,90.37
2019-05-12T02:28:39.487Z,89.80
2019-05-12T02:29:40.410Z,89.89
2019-05-12T02:30:42.106Z,89.70
2019-05-12T02:31:43.173Z,89.99
2019-05-12T02:32:49.624Z,89.51
2019-05-12T02:33:45.909Z,89.94
2019-05-12T02:34:47.297Z,89.85
2019-05-12T02:35:48.679Z,89.66
2019-05-12T02:36:50.067Z,89.66
2019-05-12T02:37:51.464Z,89.37
2019-05-12T02:38:55.645Z,89.85
2019-05-12T02:39:55.564Z,89.56
2019-05-12T02:40:55.643Z,89.56
2019-05-12T02:41:57.820Z,90.23
2019-05-12T02:42:59.230Z,89.94
2019-05-12T02:44:00.620Z,89.75
2019-05-12T02:45:05.226Z,90.52
2019-05-12T02:46:04.838Z,90.04
2019-05-12T02:47:05.136Z,89.85
2019-05-12T02:48:06.097Z,89.56
2019-05-12T02:49:07.471Z,90.04
2019-05-12T02:50:08.860Z,89.94
2019-05-12T02:51:10.238Z,89.75
2019-05-12T02:52:11.631Z,90.33
2019-05-12T02:53:14.453Z,90.80
2019-05-12T02:54:14.495Z,90.61
2019-05-12T02:55:15.717Z,90.23
2019-05-12T02:56:17.102Z,90.33
2019-05-12T02:57:18.485Z,90.61
2019-05-12T02:58:19.893Z,90.52
2019-05-12T02:59:21.273Z,90.70
2019-05-12T03:00:24.214Z,90.52
2019-05-12T03:01:24.356Z,90.23
2019-05-12T03:02:25.352Z,90.23
2019-05-12T03:03:26.746Z,90.52
2019-05-12T03:04:28.161Z,90.04
2019-05-12T03:05:29.542Z,89.66
2019-05-12T03:06:30.937Z,89.66
2019-05-12T03:07:34.588Z,90.23
2019-05-12T03:08:34.798Z,89.85
2019-05-12T03:09:35.389Z,89.94
2019-05-12T03:10:36.386Z,90.04
2019-05-12T03:11:37.797Z,89.47
2019-05-12T03:12:39.168Z,89.66
2019-05-12T03:13:40.555Z,89.94
2019-05-12T03:14:44.637Z,89.37
2019-05-12T03:15:44.565Z,89.66
2019-05-12T03:16:45.337Z,89.56
2019-05-12T03:17:46.018Z,89.18
2019-05-12T03:18:47.411Z,89.28
2019-05-12T03:19:48.803Z,89.09
2019-05-12T03:20:50.181Z,89.28
2019-05-12T03:21:54.595Z,88.90
2019-05-12T03:22:55.130Z,89.37
2019-05-12T03:23:55.076Z,89.37
2019-05-12T03:25:07.812Z,89.18
2019-05-12T03:25:56.990Z,89.37
2019-05-12T03:26:58.408Z,89.00
2019-05-12T03:27:59.796Z,89.56
2019-05-12T03:29:01.188Z,89.18
2019-05-12T03:30:09.922Z,88.85
2019-05-12T03:31:07.919Z,88.67
2019-05-12T03:32:08.165Z,89.18
2019-05-12T03:33:09.222Z,89.23
2019-05-12T03:34:10.224Z,89.33
2019-05-12T03:35:09.688Z,89.23
2019-05-12T03:36:10.886Z,89.52
2019-05-12T03:37:17.197Z,89.23
2019-05-12T03:38:14.815Z,89.37
2019-05-12T03:39:15.216Z,89.80
2019-05-12T03:40:16.315Z,89.80
2019-05-12T03:41:17.701Z,89.71
2019-05-12T03:42:19.093Z,89.71
2019-05-12T03:43:20.474Z,89.52
2019-05-12T03:44:24.989Z,89.71
2019-05-12T03:45:25.133Z,89.33
2019-05-12T03:46:24.971Z,89.71
2019-05-12T03:47:25.942Z,89.80
2019-05-12T03:48:27.324Z,90.37
2019-05-12T03:49:28.709Z,90.09
2019-05-12T03:50:30.099Z,90.66
2019-05-12T03:51:34.718Z,90.85
2019-05-12T03:52:35.009Z,90.75
2019-05-12T03:53:35.180Z,90.66
2019-05-12T03:54:35.556Z,90.94
2019-05-12T03:55:41.842Z,91.04
2019-05-12T03:56:38.318Z,90.89
2019-05-12T03:57:39.719Z,91.33
2019-05-12T03:58:41.108Z,91.23
2019-05-12T03:59:44.805Z,90.85
2019-05-12T04:00:44.697Z,90.75
2019-05-12T04:01:45.458Z,91.23
2019-05-12T04:02:46.570Z,91.37
2019-05-12T04:03:47.951Z,91.04
2019-05-12T04:04:49.339Z,90.75
2019-05-12T04:05:50.728Z,90.94
2019-05-12T04:06:54.369Z,91.33
2019-05-12T04:07:54.679Z,91.42
2019-05-12T04:08:57.493Z,91.13
2019-05-12T04:09:56.181Z,91.52
2019-05-12T04:10:57.574Z,90.85
2019-05-12T04:11:58.964Z,91.08
2019-05-12T04:13:00.371Z,91.04
2019-05-12T04:14:01.760Z,91.42
2019-05-12T04:15:05.050Z,91.04
2019-05-12T04:16:05.040Z,91.47
2019-05-12T04:17:05.902Z,91.56
2019-05-12T04:18:07.280Z,91.37
2019-05-12T04:19:08.681Z,91.47
2019-05-12T04:20:10.079Z,91.08
2019-05-12T04:21:11.470Z,90.99
2019-05-12T04:22:15.173Z,91.08
2019-05-12T04:23:15.377Z,91.28
2019-05-12T04:24:15.574Z,91.28
2019-05-12T04:25:16.973Z,90.89
2019-05-12T04:26:18.376Z,91.28
2019-05-12T04:27:19.769Z,90.52
2019-05-12T04:28:24.338Z,90.42
2019-05-12T04:29:25.007Z,90.23
2019-05-12T04:30:25.023Z,90.89
2019-05-12T04:31:25.293Z,90.80
2019-05-12T04:32:26.590Z,90.33
2019-05-12T04:33:27.986Z,90.52
2019-05-12T04:34:29.378Z,90.23
2019-05-12T04:35:30.770Z,90.61
2019-05-12T04:36:35.188Z,90.23
2019-05-12T04:37:35.251Z,90.14
2019-05-12T04:38:35.499Z,90.52
2019-05-12T04:39:36.255Z,90.52
2019-05-12T04:40:37.665Z,90.33
2019-05-12T04:41:39.040Z,90.52
2019-05-12T04:42:40.432Z,90.52
2019-05-12T04:43:44.534Z,90.70
2019-05-12T04:44:44.814Z,90.61
2019-05-12T04:45:45.126Z,91.28
2019-05-12T04:46:45.893Z,91.18
2019-05-12T04:47:47.283Z,91.18
2019-05-12T04:48:48.673Z,91.08
2019-05-12T04:49:50.070Z,91.18
2019-05-12T04:50:54.651Z,91.08
2019-05-12T04:51:54.536Z,90.80
2019-05-12T04:52:54.885Z,90.80
2019-05-12T04:53:55.508Z,90.99
2019-05-12T04:54:56.902Z,91.37
2019-05-12T04:56:10.846Z,90.61
2019-05-12T04:56:59.647Z,90.52
2019-05-12T04:58:04.078Z,90.23
2019-05-12T04:59:04.819Z,90.61
2019-05-12T05:00:05.112Z,90.61
2019-05-12T05:01:06.303Z,89.56
2019-05-12T05:02:06.468Z,89.85
2019-05-12T05:03:07.857Z,89.85
2019-05-12T05:04:09.305Z,89.94
2019-05-12T05:05:10.724Z,89.70
2019-05-12T05:06:14.554Z,88.94
2019-05-12T05:07:15.045Z,89.23
2019-05-12T05:08:19.256Z,88.94
2019-05-12T05:09:16.177Z,88.75
2019-05-12T05:10:17.553Z,88.56
2019-05-12T05:11:18.951Z,88.09
2019-05-12T05:12:20.339Z,88.28
2019-05-12T05:13:24.278Z,87.90
2019-05-12T05:14:24.729Z,87.61
2019-05-12T05:15:24.937Z,87.23
2019-05-12T05:16:25.817Z,87.99
2019-05-12T05:17:27.216Z,87.32
2019-05-12T05:18:28.617Z,86.66
2019-05-12T05:19:30.004Z,87.27
2019-05-12T05:20:31.402Z,86.90
2019-05-12T05:21:34.376Z,86.32
2019-05-12T05:22:34.170Z,86.04
2019-05-12T05:23:35.562Z,85.85
2019-05-12T05:24:36.954Z,85.75
2019-05-12T05:25:38.365Z,85.28
2019-05-12T05:26:39.756Z,84.99
2019-05-12T05:27:41.144Z,85.37
2019-05-12T05:28:43.536Z,84.42
2019-05-12T05:29:43.895Z,83.75
2019-05-12T05:30:45.288Z,83.70
2019-05-12T05:31:46.679Z,83.13
2019-05-12T05:32:48.084Z,82.46
2019-05-12T05:33:50.263Z,82.27
2019-05-12T05:34:55.737Z,81.70
2019-05-12T05:35:54.127Z,82.18
2019-05-12T05:36:59.426Z,82.08
2019-05-12T05:37:54.959Z,81.98
2019-05-12T05:39:01.455Z,81.46
2019-05-12T05:39:57.709Z,81.46
2019-05-12T05:40:59.668Z,80.12
2019-05-12T05:42:00.467Z,80.12
2019-05-12T05:43:03.695Z,78.69
2019-05-12T05:44:03.319Z,79.07
2019-05-12T05:45:04.884Z,79.30
2019-05-12T05:46:07.827Z,79.17
2019-05-12T05:47:07.308Z,79.55
2019-05-12T05:48:10.233Z,79.07
2019-05-12T05:49:10.104Z,79.40
2019-05-12T05:50:13.379Z,78.73
2019-05-12T05:51:13.654Z,77.78
2019-05-12T05:52:14.226Z,75.91
2019-05-12T05:53:19.508Z,75.72
2019-05-12T05:54:17.012Z,75.43
2019-05-12T05:55:20.160Z,75.62
2019-05-12T05:56:19.764Z,75.43
2019-05-12T05:57:25.712Z,75.81
2019-05-12T05:58:25.915Z,75.91
2019-05-12T05:59:31.159Z,76.16
2019-05-12T06:00:26.388Z,76.10
2019-05-12T06:01:26.637Z,76.39
2019-05-12T06:02:31.837Z,76.01
2019-05-12T06:03:29.401Z,76.10
2019-05-12T06:04:30.797Z,76.01
2019-05-12T06:05:34.031Z,75.62
2019-05-12T06:06:34.173Z,75.62
2019-05-12T06:07:38.958Z,75.05
2019-05-12T06:08:36.279Z,74.90
2019-05-12T06:09:37.683Z,73.66
2019-05-12T06:10:40.339Z,73.37
2019-05-12T06:11:40.434Z,72.83
2019-05-12T06:12:47.909Z,72.74
2019-05-12T06:13:44.316Z,71.69
2019-05-12T06:14:46.630Z,71.41
2019-05-12T06:15:45.922Z,71.46
2019-05-12T06:16:47.329Z,71.21
2019-05-12T06:17:48.728Z,70.01
2019-05-12T06:18:50.140Z,68.32
2019-05-12T06:19:53.694Z,66.06
2019-05-12T06:20:54.120Z,63.70
2019-05-12T06:21:54.281Z,62.11
2019-05-12T06:22:57.624Z,60.13
2019-05-12T06:23:57.059Z,56.96
2019-05-12T06:24:58.954Z,54.16
2019-05-12T06:25:59.845Z,51.04
2019-05-12T06:27:08.377Z,47.94
2019-05-12T06:28:04.559Z,43.96
2019-05-12T06:29:04.486Z,40.94
2019-05-12T06:30:06.348Z,38.76
2019-05-12T06:31:06.759Z,36.66
2019-05-12T06:32:10.736Z,35.41
2019-05-12T06:33:09.521Z,34.63
2019-05-12T06:34:15.176Z,33.99
2019-05-12T06:35:14.933Z,33.14
2019-05-12T06:36:21.732Z,31.99
2019-05-12T06:37:17.083Z,31.31
2019-05-12T06:38:16.449Z,30.54
2019-05-12T06:39:20.570Z,29.98
2019-05-12T06:40:19.256Z,29.22
2019-05-12T06:41:21.315Z,28.65
2019-05-12T06:42:24.054Z,27.79
2019-05-12T06:43:24.374Z,27.11
2019-05-12T06:44:24.772Z,27.01
2019-05-12T06:45:28.360Z,28.05
2019-05-12T06:46:27.550Z,28.81
2019-05-12T06:47:28.960Z,29.60
2019-05-12T06:48:30.445Z,28.93
2019-05-12T06:49:33.736Z,28.64
2019-05-12T06:50:36.943Z,27.87
2019-05-12T06:51:34.571Z,27.78
2019-05-12T06:52:38.686Z,27.39
2019-05-12T06:53:37.337Z,27.86
2019-05-12T06:54:42.541Z,27.76
2019-05-12T06:55:40.175Z,27.66
2019-05-12T06:56:43.406Z,28.63
2019-05-12T06:57:45.923Z,28.83
2019-05-12T06:58:44.383Z,28.74
2019-05-12T06:59:50.900Z,27.78
2019-05-12T07:00:47.117Z,27.48
2019-05-12T07:01:49.791Z,26.90
2019-05-12T07:02:52.629Z,26.73
2019-05-12T07:03:52.926Z,26.06
2019-05-12T07:04:57.317Z,25.86
2019-05-12T07:05:54.054Z,25.96
2019-05-12T07:07:00.434Z,25.76
2019-05-12T07:07:56.848Z,26.25
2019-05-12T07:09:06.418Z,25.29
2019-05-12T07:10:02.632Z,25.38
2019-05-12T07:11:03.133Z,25.67
2019-05-12T07:12:06.638Z,25.19
2019-05-12T07:13:05.639Z,25.12
2019-05-12T07:14:12.927Z,24.56
2019-05-12T07:15:06.758Z,23.32
2019-05-12T07:16:10.124Z,23.25
2019-05-12T07:17:09.532Z,21.91
2019-05-12T07:18:13.477Z,21.61
2019-05-12T07:19:20.642Z,21.78
2019-05-12T07:20:14.762Z,21.97
2019-05-12T07:21:19.438Z,22.06
2019-05-12T07:22:21.895Z,22.05
2019-05-12T07:23:19.804Z,22.90
2019-05-12T07:24:19.248Z,22.81
2019-05-12T07:25:24.607Z,22.90
2019-05-12T07:26:23.470Z,23.19
2019-05-12T07:27:35.767Z,23.19
2019-05-12T07:28:24.813Z,23.47
2019-05-12T07:29:26.231Z,23.78
2019-05-12T07:30:27.639Z,23.29
2019-05-12T07:31:29.063Z,23.27
2019-05-12T07:32:30.485Z,24.13
2019-05-12T07:33:32.786Z,24.13
2019-05-12T07:34:33.411Z,24.13
2019-05-12T07:35:34.671Z,24.23
2019-05-12T07:36:36.079Z,24.05
2019-05-12T07:37:37.496Z,24.23
2019-05-12T07:38:38.919Z,23.66
2019-05-12T07:39:45.395Z,24.05
2019-05-12T07:40:41.714Z,23.85
2019-05-12T07:41:51.006Z,23.65
2019-05-12T07:42:44.514Z,23.93
2019-05-12T07:43:50.481Z,25.16
2019-05-12T07:44:47.311Z,24.89
2019-05-12T07:45:53.201Z,24.51
2019-05-12T07:46:50.136Z,23.83
2019-05-12T07:47:51.560Z,24.04
2019-05-12T07:48:54.236Z,24.71
2019-05-12T07:49:54.375Z,23.38
2019-05-12T07:51:00.465Z,22.81
2019-05-12T07:51:57.428Z,22.24
2019-05-12T07:52:58.819Z,21.37
2019-05-12T07:54:00.231Z,21.19
2019-05-12T07:55:04.120Z,20.71
2019-05-12T07:56:04.147Z,20.21
2019-05-12T07:57:11.962Z,20.90
2019-05-12T07:58:14.020Z,20.79
2019-05-12T07:59:07.183Z,20.98
2019-05-12T08:00:11.479Z,20.87
2019-05-12T08:01:09.997Z,21.07
2019-05-12T08:02:11.423Z,21.07
2019-05-12T08:03:20.946Z,20.87
2019-05-12T08:04:14.413Z,21.18
2019-05-12T08:05:20.162Z,21.07
2019-05-12T08:06:17.968Z,21.18
2019-05-12T08:07:19.836Z,20.69
2019-05-12T08:08:20.809Z,21.08
2019-05-12T08:09:24.202Z,20.98
2019-05-12T08:10:23.615Z,20.40
2019-05-12T08:11:28.760Z,20.97
2019-05-12T08:12:26.410Z,20.96
2019-05-12T08:13:31.123Z,20.78
2019-05-12T08:14:29.495Z,20.79
2019-05-12T08:15:30.620Z,20.30
2019-05-12T08:16:36.215Z,20.22
2019-05-12T08:17:33.696Z,19.74
2019-05-12T08:18:36.951Z,20.12
2019-05-12T08:19:36.174Z,19.93
2019-05-12T08:20:37.584Z,20.23
2019-05-12T08:21:43.529Z,20.22
2019-05-12T08:22:40.939Z,20.02
2019-05-12T08:23:44.157Z,20.22
2019-05-12T08:24:45.826Z,20.24
2019-05-12T08:25:44.530Z,19.07
2019-05-12T08:26:49.661Z,19.06
2019-05-12T08:27:50.268Z,18.75
2019-05-12T08:28:48.715Z,19.14
2019-05-12T08:29:54.467Z,19.43
2019-05-12T08:30:54.313Z,19.34
2019-05-12T08:31:54.816Z,19.53
2019-05-12T08:33:02.044Z,20.10
2019-05-12T08:33:55.666Z,19.44
2019-05-12T08:34:57.094Z,19.65
2019-05-12T08:36:05.452Z,20.12
2019-05-12T08:36:59.908Z,20.12
2019-05-12T08:38:03.634Z,19.45
2019-05-12T08:39:05.848Z,20.03
2019-05-12T08:40:07.538Z,20.04
2019-05-12T08:41:05.516Z,19.85
2019-05-12T08:42:06.946Z,19.37
2019-05-12T08:43:10.330Z,18.19
2019-05-12T08:44:09.762Z,18.29
2019-05-12T08:45:15.199Z,18.98
2019-05-12T08:46:15.505Z,18.19
2019-05-12T08:47:15.174Z,18.68
2019-05-12T08:48:21.263Z,18.89
2019-05-12T08:49:16.903Z,18.29
2019-05-12T08:50:25.583Z,18.48
2019-05-12T08:51:20.122Z,18.59
2019-05-12T08:52:23.430Z,18.98
2019-05-12T08:53:23.529Z,17.62
2019-05-12T08:54:23.873Z,17.53
2019-05-12T08:55:31.179Z,18.10
2019-05-12T08:56:26.681Z,18.49
2019-05-12T08:57:32.569Z,17.99
2019-05-12T08:58:33.648Z,18.19
2019-05-12T08:59:30.875Z,18.39
2019-05-12T09:00:33.989Z,18.68
2019-05-12T09:01:34.327Z,18.21
2019-05-12T09:02:35.079Z,18.60
2019-05-12T09:03:36.498Z,18.39
2019-05-12T09:04:45.400Z,18.19
2019-05-12T09:05:39.312Z,18.18
2019-05-12T09:06:40.738Z,18.27
2019-05-12T09:07:43.557Z,18.87
2019-05-12T09:08:45.152Z,19.06
2019-05-12T09:09:44.934Z,18.27
2019-05-12T09:10:46.352Z,18.18
2019-05-12T09:11:47.787Z,18.85
2019-05-12T09:12:49.223Z,18.07
2019-05-12T09:13:54.351Z,17.58
2019-05-12T09:14:54.443Z,18.15
2019-05-12T09:15:54.147Z,18.92
2019-05-12T09:17:02.803Z,19.21
2019-05-12T09:17:56.998Z,21.05
2019-05-12T09:18:57.570Z,20.26
2019-05-12T09:20:05.899Z,20.93
2019-05-12T09:21:00.392Z,21.32
2019-05-12T09:22:05.447Z,21.43
2019-05-12T09:23:04.703Z,21.42
2019-05-12T09:24:04.650Z,21.22
2019-05-12T09:25:08.251Z,20.93
2019-05-12T09:26:07.447Z,21.14
2019-05-12T09:27:09.085Z,21.42
2019-05-12T09:28:10.259Z,20.92
2019-05-12T09:29:13.810Z,21.51
2019-05-12T09:30:14.211Z,21.59
2019-05-12T09:31:19.271Z,22.08
2019-05-12T09:32:15.862Z,22.17
2019-05-12T09:33:21.596Z,21.87
2019-05-12T09:34:18.674Z,22.25
2019-05-12T09:35:20.106Z,23.32
2019-05-12T09:36:21.788Z,22.47
2019-05-12T09:37:24.048Z,22.58
2019-05-12T09:38:26.227Z,22.11
2019-05-12T09:39:25.665Z,20.65
2019-05-12T09:40:27.093Z,19.57
2019-05-12T09:41:28.515Z,19.75
2019-05-12T09:42:30.160Z,19.74
2019-05-12T09:43:31.336Z,19.75
2019-05-12T09:44:34.093Z,20.14
2019-05-12T09:45:34.149Z,20.35
2019-05-12T09:46:37.596Z,18.99
2019-05-12T09:47:36.957Z,19.38
2019-05-12T09:48:39.123Z,18.62
2019-05-12T09:49:39.823Z,18.42
2019-05-12T09:50:44.104Z,18.41
2019-05-12T09:51:45.715Z,18.31
2019-05-12T09:52:44.106Z,18.02
2019-05-12T09:53:50.959Z,18.12
2019-05-12T09:54:46.749Z,18.02
2019-05-12T09:55:48.174Z,18.31
2019-05-12T09:56:50.069Z,19.08
2019-05-12T09:57:50.971Z,18.88
2019-05-12T09:59:01.593Z,19.55
2019-05-12T09:59:58.007Z,19.35
2019-05-12T10:00:55.367Z,19.84
2019-05-12T10:01:56.790Z,19.73
2019-05-12T10:03:00.655Z,20.70
2019-05-12T10:03:59.587Z,21.09
2019-05-12T10:05:01.135Z,21.47
2019-05-12T10:06:03.675Z,21.66
2019-05-12T10:07:03.958Z,20.97
2019-05-12T10:08:05.200Z,20.96
2019-05-12T10:09:08.791Z,20.96
2019-05-12T10:10:07.959Z,21.54
2019-05-12T10:11:10.286Z,22.02
2019-05-12T10:12:10.748Z,22.69
2019-05-12T10:13:13.681Z,22.97
2019-05-12T10:14:13.999Z,23.35
2019-05-12T10:15:18.596Z,23.23
2019-05-12T10:16:16.270Z,24.08
2019-05-12T10:17:20.285Z,24.95
2019-05-12T10:18:19.029Z,25.51
2019-05-12T10:19:20.447Z,26.28
2019-05-12T10:20:24.064Z,25.68
2019-05-12T10:21:23.797Z,25.57
2019-05-12T10:22:24.633Z,26.06
2019-05-12T10:23:27.442Z,26.44
2019-05-12T10:24:31.783Z,27.20
2019-05-12T10:25:30.549Z,27.67
2019-05-12T10:26:30.158Z,28.42
2019-05-12T10:27:34.082Z,29.57
2019-05-12T10:28:32.942Z,30.24
2019-05-12T10:29:34.357Z,30.63
2019-05-12T10:30:35.767Z,30.32
2019-05-12T10:31:39.382Z,30.61
2019-05-12T10:32:38.530Z,31.08
2019-05-12T10:33:39.936Z,31.37
2019-05-12T10:34:41.350Z,32.33
2019-05-12T10:35:43.872Z,31.85
2019-05-12T10:36:44.852Z,31.65
2019-05-12T10:37:47.235Z,32.62
2019-05-12T10:38:46.846Z,32.71
2019-05-12T10:39:48.268Z,31.35
2019-05-12T10:40:49.677Z,30.58
2019-05-12T10:41:51.080Z,29.91
2019-05-12T10:42:53.517Z,30.66
2019-05-12T10:43:57.533Z,31.34
2019-05-12T10:44:56.670Z,32.20
2019-05-12T10:45:56.613Z,32.87
2019-05-12T10:46:58.021Z,32.98
2019-05-12T10:47:59.427Z,32.98
2019-05-12T10:49:00.822Z,33.37
2019-05-12T10:50:02.230Z,33.18
2019-05-12T10:51:03.647Z,33.26
2019-05-12T10:52:05.053Z,32.97
2019-05-12T10:53:10.032Z,33.18
2019-05-12T10:54:12.512Z,33.18
2019-05-12T10:55:09.199Z,32.41
2019-05-12T10:56:10.601Z,31.64
2019-05-12T10:57:13.975Z,31.45
2019-05-12T10:58:14.528Z,32.12
2019-05-12T10:59:27.959Z,32.12
2019-05-12T11:00:19.830Z,31.74
2019-05-12T11:01:17.488Z,31.06
2019-05-12T11:02:20.301Z,30.49
2019-05-12T11:03:20.275Z,30.58
2019-05-12T11:04:25.058Z,31.18
2019-05-12T11:05:25.824Z,31.37
2019-05-12T11:06:24.509Z,31.56
2019-05-12T11:07:28.189Z,31.65
2019-05-12T11:08:27.174Z,30.61
2019-05-12T11:09:31.645Z,29.76
2019-05-12T11:10:29.940Z,28.99
2019-05-12T11:11:32.841Z,28.33
2019-05-12T11:12:33.331Z,27.67
2019-05-12T11:13:34.091Z,26.64
2019-05-12T11:14:35.495Z,25.39
2019-05-12T11:15:39.429Z,25.03
2019-05-12T11:16:38.281Z,25.34
2019-05-12T11:17:40.294Z,25.07
2019-05-12T11:18:43.545Z,23.33
2019-05-12T11:19:47.202Z,22.19
2019-05-12T11:20:45.066Z,22.00
2019-05-12T11:21:45.203Z,21.72
2019-05-12T11:22:46.611Z,22.02
2019-05-12T11:23:48.017Z,22.30
2019-05-12T11:24:52.416Z,22.69
2019-05-12T11:25:53.193Z,22.12
2019-05-12T11:26:53.677Z,21.83
2019-05-12T11:27:54.871Z,22.22
2019-05-12T11:28:55.020Z,21.73
2019-05-12T11:29:56.432Z,20.86
2019-05-12T11:30:57.848Z,19.32
2019-05-12T11:31:59.262Z,19.22
2019-05-12T11:33:00.678Z,19.13
2019-05-12T11:34:04.647Z,18.47
2019-05-12T11:35:04.145Z,18.19
2019-05-12T11:36:04.843Z,17.99
2019-05-12T11:37:06.260Z,17.90
2019-05-12T11:38:07.675Z,18.00
2019-05-12T11:39:09.098Z,17.90
2019-05-12T11:40:10.529Z,18.19
2019-05-12T11:41:16.122Z,18.88
2019-05-12T11:42:13.690Z,18.88
2019-05-12T11:43:14.709Z,19.74
2019-05-12T11:44:16.117Z,19.26
2019-05-12T11:45:17.547Z,19.65
2019-05-12T11:46:18.948Z,19.64
2019-05-12T11:47:24.234Z,18.77
2019-05-12T11:48:23.333Z,18.09
2019-05-12T11:49:26.373Z,17.31
2019-05-12T11:50:24.493Z,16.72
2019-05-12T11:51:28.890Z,16.72
2019-05-12T11:52:27.270Z,15.54
2019-05-12T11:53:30.810Z,15.84
2019-05-12T11:54:30.043Z,16.24
2019-05-12T11:55:31.861Z,16.03
2019-05-12T11:56:33.612Z,15.92
2019-05-12T11:57:34.228Z,15.92
2019-05-12T11:58:35.632Z,16.79
2019-05-12T11:59:37.051Z,17.94
2019-05-12T12:00:38.452Z,19.01
2019-05-12T12:01:44.882Z,19.40
2019-05-12T12:02:43.639Z,19.60
2019-05-12T12:03:44.032Z,19.68
2019-05-12T12:04:43.984Z,20.06
2019-05-12T12:05:45.387Z,20.06
2019-05-12T12:06:46.799Z,20.37
2019-05-12T12:07:51.677Z,20.95
2019-05-12T12:08:49.650Z,20.76
2019-05-12T12:09:56.223Z,20.96
2019-05-12T12:10:53.911Z,20.97
2019-05-12T12:11:56.696Z,19.80
2019-05-12T12:12:55.088Z,19.90
2019-05-12T12:14:00.436Z,20.08
2019-05-12T12:14:57.860Z,20.85
2019-05-12T12:16:00.557Z,20.85
2019-05-12T12:17:00.659Z,20.74
2019-05-12T12:18:03.966Z,20.73
2019-05-12T12:19:05.817Z,21.40
2019-05-12T12:20:04.811Z,22.36
2019-05-12T12:21:07.700Z,22.16
2019-05-12T12:22:07.591Z,22.44
2019-05-12T12:23:11.067Z,23.00
2019-05-12T12:24:10.379Z,22.99
2019-05-12T12:25:13.589Z,23.65
2019-05-12T12:26:13.328Z,25.10
2019-05-12T12:27:14.562Z,25.28
2019-05-12T12:28:15.968Z,26.15
2019-05-12T12:29:17.362Z,26.34
2019-05-12T12:30:19.874Z,26.64
2019-05-12T12:31:20.148Z,26.64
2019-05-12T12:32:23.159Z,27.40
2019-05-12T12:33:23.489Z,27.12
2019-05-12T12:34:29.933Z,27.12
2019-05-12T12:35:25.687Z,27.01
2019-05-12T12:36:27.101Z,26.91
2019-05-12T12:37:28.524Z,26.51
2019-05-12T12:38:29.939Z,26.69
2019-05-12T12:39:31.343Z,26.98
2019-05-12T12:40:32.777Z,26.32
2019-05-12T12:41:34.211Z,25.55
2019-05-12T12:42:38.518Z,25.67
2019-05-12T12:43:36.973Z,25.28
2019-05-12T12:44:38.386Z,25.87
2019-05-12T12:45:40.472Z,25.81
2019-05-12T12:46:41.139Z,25.14
2019-05-12T12:47:46.701Z,24.58
2019-05-12T12:48:44.041Z,23.33
2019-05-12T12:49:48.989Z,23.05
2019-05-12T12:50:46.667Z,22.66
2019-05-12T12:51:48.066Z,22.47
2019-05-12T12:52:49.475Z,22.55
2019-05-12T12:53:50.888Z,22.92
2019-05-12T12:54:54.184Z,22.05
2019-05-12T12:55:53.761Z,22.99
2019-05-12T12:56:55.038Z,21.81
2019-05-12T12:57:56.455Z,21.89
2019-05-12T12:59:01.917Z,22.08
2019-05-12T12:59:59.242Z,23.99
2019-05-12T13:01:00.659Z,25.73
2019-05-12T13:02:05.801Z,26.78
2019-05-12T13:03:03.739Z,27.62
2019-05-12T13:04:05.172Z,26.75
2019-05-12T13:05:06.158Z,25.98
2019-05-12T13:06:07.576Z,25.79
2019-05-12T13:07:08.979Z,26.54
2019-05-12T13:08:10.392Z,27.31
2019-05-12T13:09:18.519Z,27.50
2019-05-12T13:10:14.300Z,26.45